createdAt,value
2019-05-03T00:02:27.482Z,5.63
2019-05-03T00:03:34.473Z,5.60
2019-05-03T00:04:42.278Z,5.90
2019-05-03T00:05:52.494Z,5.23
2019-05-03T00:06:59.605Z,5.27
2019-05-03T00:08:08.680Z,5.10
2019-05-03T00:09:17.461Z,4.97
2019-05-03T00:10:24.704Z,5.27
2019-05-03T00:11:32.693Z,4.77
2019-05-03T00:12:39.819Z,6.37
2019-05-03T00:13:47.073Z,5.43
2019-05-03T00:14:58.589Z,6.00
2019-05-03T00:16:14.811Z,5.70
2019-05-03T00:17:22.473Z,6.67
2019-05-03T00:18:29.554Z,6.23
2019-05-03T00:19:36.618Z,5.97
2019-05-03T00:20:43.701Z,4.73
2019-05-03T00:21:52.568Z,5.57
2019-05-03T00:23:00.099Z,4.63
2019-05-03T00:24:06.853Z,4.63
2019-05-03T00:25:13.696Z,6.57
2019-05-03T00:26:22.416Z,5.10
2019-05-03T00:27:28.939Z,4.57
2019-05-03T00:28:35.734Z,4.77
2019-05-03T00:29:42.498Z,5.20
2019-05-03T00:30:49.253Z,4.90
2019-05-03T00:31:56.003Z,5.80
2019-05-03T00:33:02.991Z,5.10
2019-05-03T00:34:13.109Z,5.07
2019-05-03T00:35:26.340Z,4.30
2019-05-03T00:36:39.137Z,4.80
2019-05-03T00:37:47.731Z,4.93
2019-05-03T00:38:57.915Z,4.80
2019-05-03T00:40:06.950Z,4.50
2019-05-03T00:41:14.073Z,4.90
2019-05-03T00:42:22.499Z,4.30
2019-05-03T00:43:31.776Z,3.40
2019-05-03T00:44:39.043Z,3.70
2019-05-03T00:45:46.147Z,4.70
2019-05-03T00:46:53.094Z,5.07
2019-05-03T00:48:01.740Z,4.30
2019-05-03T00:49:08.737Z,3.20
2019-05-03T00:50:15.688Z,4.03
2019-05-03T00:51:22.676Z,3.97
2019-05-03T00:52:31.699Z,4.70
2019-05-03T00:53:38.967Z,3.50
2019-05-03T00:54:45.761Z,3.60
2019-05-03T00:55:52.614Z,2.83
2019-05-03T00:56:59.409Z,3.60
2019-05-03T00:58:06.458Z,3.07
2019-05-03T00:59:13.185Z,3.20
2019-05-03T01:00:21.773Z,3.97
2019-05-03T01:01:28.773Z,3.20
2019-05-03T01:02:35.533Z,3.47
2019-05-03T01:03:42.498Z,4.00
2019-05-03T01:04:49.328Z,3.67
2019-05-03T01:05:56.598Z,4.30
2019-05-03T01:07:03.328Z,3.70
2019-05-03T01:08:10.092Z,3.30
2019-05-03T01:09:20.235Z,3.43
2019-05-03T01:10:27.293Z,4.17
2019-05-03T01:11:34.231Z,3.50
2019-05-03T01:12:41.670Z,3.70
2019-05-03T01:13:48.585Z,3.47
2019-05-03T01:14:56.495Z,3.47
2019-05-03T01:16:07.891Z,3.30
2019-05-03T01:17:14.647Z,5.03
2019-05-03T01:18:21.939Z,3.20
2019-05-03T01:19:29.159Z,3.67
2019-05-03T01:20:36.214Z,3.43
2019-05-03T01:21:43.435Z,4.10
2019-05-03T01:22:51.908Z,4.40
2019-05-03T01:23:58.820Z,3.33
2019-05-03T01:25:06.254Z,3.20
2019-05-03T01:26:13.012Z,3.40
2019-05-03T01:27:21.810Z,2.70
2019-05-03T01:28:28.517Z,3.53
2019-05-03T01:29:36.119Z,3.27
2019-05-03T01:30:43.298Z,3.13
2019-05-03T01:31:50.360Z,3.50
2019-05-03T01:32:57.480Z,3.30
2019-05-03T01:34:04.211Z,3.63
2019-05-03T01:35:12.309Z,3.53
2019-05-03T01:36:20.132Z,2.70
2019-05-03T01:37:27.299Z,2.90
2019-05-03T01:38:34.194Z,3.43
2019-05-03T01:39:42.151Z,3.03
2019-05-03T01:40:49.370Z,3.17
2019-05-03T01:41:56.271Z,3.60
2019-05-03T01:43:03.017Z,3.20
2019-05-03T01:44:10.090Z,3.60
2019-05-03T01:45:16.973Z,2.83
2019-05-03T01:46:24.574Z,3.30
2019-05-03T01:47:41.917Z,2.93
2019-05-03T01:49:07.687Z,3.17
2019-05-03T01:50:22.912Z,3.70
2019-05-03T01:51:39.141Z,3.43
2019-05-03T01:52:46.095Z,2.97
2019-05-03T01:53:53.176Z,3.33
2019-05-03T01:55:03.102Z,3.63
2019-05-03T01:56:09.310Z,3.33
2019-05-03T01:57:16.593Z,3.33
2019-05-03T01:58:24.987Z,3.00
2019-05-03T01:59:32.130Z,3.17
2019-05-03T02:00:39.789Z,2.60
2019-05-03T02:02:07.171Z,2.40
2019-05-03T02:03:21.789Z,3.70
2019-05-03T02:04:39.500Z,3.00
2019-05-03T02:05:52.046Z,2.93
2019-05-03T02:06:59.194Z,3.10
2019-05-03T02:08:05.955Z,2.80
2019-05-03T02:09:12.909Z,3.43
2019-05-03T02:10:20.023Z,2.63
2019-05-03T02:11:27.045Z,3.37
2019-05-03T02:12:33.780Z,2.77
2019-05-03T02:13:42.634Z,3.70
2019-05-03T02:14:49.865Z,2.93
2019-05-03T02:15:57.915Z,2.60
2019-05-03T02:17:04.863Z,2.70
2019-05-03T02:18:14.982Z,2.90
2019-05-03T02:19:21.977Z,2.40
2019-05-03T02:20:29.234Z,2.80
2019-05-03T02:21:36.325Z,3.27
2019-05-03T02:22:43.468Z,2.57
2019-05-03T02:23:52.086Z,2.77
2019-05-03T02:24:59.030Z,2.80
2019-05-03T02:26:06.358Z,2.77
2019-05-03T02:27:13.123Z,3.80
2019-05-03T02:28:21.983Z,2.43
2019-05-03T02:29:28.669Z,2.60
2019-05-03T02:30:35.423Z,2.83
2019-05-03T02:31:43.554Z,2.80
2019-05-03T02:32:53.288Z,2.63
2019-05-03T02:33:59.513Z,3.00
2019-05-03T02:35:07.491Z,2.40
2019-05-03T02:36:14.252Z,3.00
2019-05-03T02:37:22.504Z,2.00
2019-05-03T02:38:29.434Z,1.93
2019-05-03T02:39:36.852Z,2.60
2019-05-03T02:40:43.928Z,2.93
2019-05-03T02:41:55.269Z,2.83
2019-05-03T02:43:09.106Z,2.77
2019-05-03T02:44:18.069Z,2.10
2019-05-03T02:45:27.874Z,1.93
2019-05-03T02:46:52.605Z,2.73
2019-05-03T02:48:06.747Z,2.50
2019-05-03T02:49:45.512Z,2.50
2019-05-03T02:50:55.890Z,2.20
2019-05-03T02:52:01.569Z,3.00
2019-05-03T02:53:08.316Z,2.50
2019-05-03T02:54:15.666Z,2.50
2019-05-03T02:55:25.696Z,2.63
2019-05-03T02:56:31.523Z,3.03
2019-05-03T02:57:39.315Z,2.67
2019-05-03T02:58:46.181Z,2.33
2019-05-03T02:59:54.959Z,2.30
2019-05-03T03:01:06.579Z,2.20
2019-05-03T03:02:15.067Z,2.53
2019-05-03T03:03:21.162Z,1.67
2019-05-03T03:04:29.221Z,2.40
2019-05-03T03:05:36.547Z,2.83
2019-05-03T03:06:47.664Z,2.23
2019-05-03T03:07:56.018Z,2.83
2019-05-03T03:09:06.703Z,2.70
2019-05-03T03:10:16.393Z,2.33
2019-05-03T03:11:26.444Z,2.67
2019-05-03T03:12:35.808Z,2.47
2019-05-03T03:13:45.750Z,2.27
2019-05-03T03:14:56.446Z,2.40
2019-05-03T03:16:07.174Z,2.57
2019-05-03T03:17:17.047Z,2.60
2019-05-03T03:18:25.575Z,2.70
2019-05-03T03:19:35.418Z,2.40
2019-05-03T03:20:46.117Z,2.93
2019-05-03T03:21:56.707Z,2.53
2019-05-03T03:23:06.124Z,2.63
2019-05-03T03:24:20.484Z,2.57
2019-05-03T03:25:35.963Z,2.27
2019-05-03T03:26:43.497Z,3.00
2019-05-03T03:27:55.697Z,2.47
2019-05-03T03:29:07.995Z,3.33
2019-05-03T03:30:38.529Z,2.23
2019-05-03T03:32:29.926Z,3.00
2019-05-03T03:33:40.113Z,1.90
2019-05-03T03:35:01.392Z,2.37
2019-05-03T03:36:31.530Z,2.70
2019-05-03T03:37:11.508Z,2.00
2019-05-03T03:38:18.841Z,2.27
2019-05-03T03:39:26.520Z,4.23
2019-05-03T03:40:35.828Z,3.47
2019-05-03T03:41:45.293Z,2.37
2019-05-03T03:42:55.821Z,3.00
2019-05-03T03:44:05.802Z,2.43
2019-05-03T03:45:13.900Z,2.20
2019-05-03T03:46:25.282Z,2.60
2019-05-03T03:47:37.125Z,2.20
2019-05-03T03:48:46.107Z,2.30
2019-05-03T03:49:55.607Z,2.20
2019-05-03T03:51:05.207Z,2.27
2019-05-03T03:52:16.011Z,2.30
2019-05-03T03:53:26.335Z,2.00
2019-05-03T03:54:38.130Z,3.03
2019-05-03T03:55:49.076Z,2.20
2019-05-03T03:57:03.832Z,2.80
2019-05-03T03:58:06.663Z,2.53
2019-05-03T03:59:15.355Z,2.43
2019-05-03T04:00:22.233Z,2.17
2019-05-03T04:01:30.013Z,2.23
2019-05-03T04:02:38.647Z,2.00
2019-05-03T04:03:46.126Z,2.13
2019-05-03T04:04:55.983Z,2.37
2019-05-03T04:06:02.587Z,2.07
2019-05-03T04:07:09.399Z,2.30
2019-05-03T04:08:16.499Z,3.00
2019-05-03T04:09:25.555Z,2.40
2019-05-03T04:10:35.028Z,1.93
2019-05-03T04:11:41.923Z,2.30
2019-05-03T04:12:49.124Z,2.90
2019-05-03T04:13:56.500Z,3.10
2019-05-03T04:15:41.191Z,3.53
2019-05-03T04:17:02.306Z,3.07
2019-05-03T04:18:36.149Z,3.70
2019-05-03T04:19:45.475Z,4.00
2019-05-03T04:20:52.635Z,3.30
2019-05-03T04:22:00.076Z,2.50
2019-05-03T04:23:07.370Z,3.13
2019-05-03T04:24:16.308Z,2.90
2019-05-03T04:25:26.271Z,2.70
2019-05-03T04:26:32.938Z,2.70
2019-05-03T04:27:40.190Z,2.53
2019-05-03T04:28:47.646Z,3.13
2019-05-03T04:29:55.787Z,2.23
2019-05-03T04:31:06.011Z,2.20
2019-05-03T04:32:12.073Z,2.30
2019-05-03T04:33:18.868Z,2.90
2019-05-03T04:34:26.390Z,2.60
2019-05-03T04:35:36.055Z,2.77
2019-05-03T04:36:41.904Z,2.47
2019-05-03T04:37:48.756Z,3.13
2019-05-03T04:38:56.356Z,2.37
2019-05-03T04:40:06.100Z,3.23
2019-05-03T04:41:12.102Z,3.03
2019-05-03T04:42:19.164Z,2.57
2019-05-03T04:43:26.710Z,2.93
2019-05-03T04:44:35.837Z,2.77
2019-05-03T04:45:45.478Z,2.87
2019-05-03T04:46:54.855Z,2.30
2019-05-03T04:47:59.748Z,2.63
2019-05-03T04:49:06.598Z,2.70
2019-05-03T04:50:16.319Z,2.30
2019-05-03T04:51:25.579Z,3.17
2019-05-03T04:52:31.874Z,2.90
2019-05-03T04:53:41.250Z,2.53
2019-05-03T04:54:56.344Z,2.73
2019-05-03T04:56:05.540Z,2.53
2019-05-03T04:57:11.790Z,2.33
2019-05-03T04:58:19.031Z,3.37
2019-05-03T04:59:25.956Z,2.80
2019-05-03T05:00:35.582Z,2.37
2019-05-03T05:01:45.876Z,2.37
2019-05-03T05:02:51.925Z,2.53
2019-05-03T05:03:58.746Z,2.03
2019-05-03T05:05:07.983Z,2.27
2019-05-03T05:06:15.453Z,2.70
2019-05-03T05:07:22.359Z,2.30
2019-05-03T05:08:29.343Z,3.13
2019-05-03T05:09:36.606Z,3.13
2019-05-03T05:10:45.438Z,3.60
2019-05-03T05:11:54.493Z,3.57
2019-05-03T05:13:00.900Z,2.80
2019-05-03T05:14:07.891Z,2.57
2019-05-03T05:15:15.933Z,2.63
2019-05-03T05:16:25.019Z,2.80
2019-05-03T05:17:45.908Z,2.67
2019-05-03T05:18:57.854Z,3.20
2019-05-03T05:20:14.592Z,2.43
2019-05-03T05:21:27.912Z,2.57
2019-05-03T05:22:35.048Z,2.67
2019-05-03T05:23:58.578Z,3.47
2019-05-03T05:25:10.839Z,2.63
2019-05-03T05:26:19.863Z,3.57
2019-05-03T05:27:49.445Z,2.70
2019-05-03T05:28:55.138Z,2.83
2019-05-03T05:30:04.572Z,2.97
2019-05-03T05:31:12.182Z,2.60
2019-05-03T05:32:18.983Z,2.83
2019-05-03T05:33:25.782Z,2.50
2019-05-03T05:34:34.779Z,3.70
2019-05-03T05:35:41.530Z,2.10
2019-05-03T05:36:48.588Z,2.97
2019-05-03T05:37:55.351Z,3.30
2019-05-03T05:39:02.138Z,2.27
2019-05-03T05:40:09.994Z,2.57
2019-05-03T05:41:17.115Z,2.70
2019-05-03T05:42:25.090Z,2.20
2019-05-03T05:43:31.942Z,2.60
2019-05-03T05:44:38.831Z,2.77
2019-05-03T05:45:45.607Z,2.60
2019-05-03T05:47:04.733Z,2.30
2019-05-03T05:48:12.545Z,2.90
2019-05-03T05:49:38.546Z,2.03
2019-05-03T05:50:45.718Z,2.10
2019-05-03T05:51:54.206Z,2.20
2019-05-03T05:53:00.938Z,1.90
2019-05-03T05:54:07.816Z,2.03
2019-05-03T05:55:34.439Z,2.40
2019-05-03T05:56:55.628Z,2.63
2019-05-03T05:58:31.045Z,2.20
2019-05-03T05:59:50.485Z,2.37
2019-05-03T06:01:14.772Z,2.03
2019-05-03T06:02:22.337Z,2.53
2019-05-03T06:03:29.077Z,2.53
2019-05-03T06:04:35.826Z,2.23
2019-05-03T06:05:44.604Z,2.33
2019-05-03T06:07:10.018Z,2.73
2019-05-03T06:08:37.751Z,1.87
2019-05-03T06:10:05.144Z,2.70
2019-05-03T06:11:37.010Z,2.80
2019-05-03T06:12:59.266Z,2.27
2019-05-03T06:14:15.294Z,2.10
2019-05-03T06:15:36.926Z,2.77
2019-05-03T06:16:58.007Z,3.60
2019-05-03T06:18:08.181Z,2.20
2019-05-03T06:19:28.421Z,2.30
2019-05-03T06:20:47.174Z,2.10
2019-05-03T06:22:15.517Z,3.00
2019-05-03T06:23:29.552Z,2.33
2019-05-03T06:24:40.965Z,2.23
2019-05-03T06:25:48.052Z,2.20
2019-05-03T06:27:00.442Z,1.70
2019-05-03T06:28:18.381Z,2.73
2019-05-03T06:29:20.506Z,2.20
2019-05-03T06:30:58.173Z,2.70
2019-05-03T06:32:15.411Z,1.90
2019-05-03T06:33:24.338Z,2.47
2019-05-03T06:34:31.714Z,2.50
2019-05-03T06:35:38.446Z,2.20
2019-05-03T06:36:46.848Z,2.60
2019-05-03T06:37:54.557Z,2.00
2019-05-03T06:39:01.828Z,3.10
2019-05-03T06:40:10.240Z,1.90
2019-05-03T06:41:17.082Z,2.07
2019-05-03T06:42:25.477Z,1.90
2019-05-03T06:43:34.659Z,1.90
2019-05-03T06:44:41.245Z,2.50
2019-05-03T06:45:50.415Z,1.80
2019-05-03T06:47:01.093Z,2.13
2019-05-03T06:48:05.576Z,2.27
2019-05-03T06:49:14.954Z,2.70
2019-05-03T06:50:25.184Z,2.27
2019-05-03T06:51:29.781Z,1.77
2019-05-03T06:52:36.998Z,1.90
2019-05-03T06:53:47.608Z,1.60
2019-05-03T06:54:52.262Z,2.17
2019-05-03T06:55:59.365Z,2.60
2019-05-03T06:57:09.604Z,2.03
2019-05-03T06:58:30.376Z,1.83
2019-05-03T06:59:30.601Z,1.60
2019-05-03T07:00:59.235Z,1.67
2019-05-03T07:02:25.294Z,1.57
2019-05-03T07:03:38.917Z,3.17
2019-05-03T07:04:47.700Z,1.60
2019-05-03T07:06:12.291Z,1.97
2019-05-03T07:07:41.030Z,1.93
2019-05-03T07:08:58.838Z,1.70
2019-05-03T07:10:15.025Z,2.40
2019-05-03T07:11:21.928Z,2.07
2019-05-03T07:12:47.586Z,1.57
2019-05-03T07:13:55.001Z,2.27
2019-05-03T07:15:02.266Z,2.17
2019-05-03T07:16:09.826Z,1.80
2019-05-03T07:17:16.927Z,2.13
2019-05-03T07:18:24.754Z,2.00
2019-05-03T07:19:32.002Z,1.97
2019-05-03T07:20:58.038Z,2.07
2019-05-03T07:22:05.142Z,2.23
2019-05-03T07:23:12.055Z,1.60
2019-05-03T07:24:22.263Z,1.70
2019-05-03T07:25:27.582Z,1.33
2019-05-03T07:26:34.487Z,2.20
2019-05-03T07:27:41.308Z,2.33
2019-05-03T07:28:50.161Z,1.40
2019-05-03T07:29:56.599Z,1.40
2019-05-03T07:31:04.798Z,1.60
2019-05-03T07:32:11.710Z,1.80
2019-05-03T07:33:25.451Z,1.70
2019-05-03T07:34:34.919Z,2.20
2019-05-03T07:35:41.202Z,1.57
2019-05-03T07:36:47.968Z,1.90
2019-05-03T07:37:55.319Z,1.90
2019-05-03T07:39:02.658Z,1.93
2019-05-03T07:40:10.110Z,1.90
2019-05-03T07:41:17.344Z,1.73
2019-05-03T07:42:25.627Z,1.50
2019-05-03T07:43:32.688Z,1.70
2019-05-03T07:44:39.439Z,1.80
2019-05-03T07:45:46.961Z,1.40
2019-05-03T07:46:55.460Z,2.23
2019-05-03T07:48:02.170Z,1.87
2019-05-03T07:49:08.959Z,1.60
2019-05-03T07:50:16.090Z,1.87
2019-05-03T07:51:24.685Z,2.30
2019-05-03T07:52:31.632Z,2.73
2019-05-03T07:53:38.392Z,1.50
2019-05-03T07:54:45.722Z,1.90
2019-05-03T07:56:06.410Z,1.70
2019-05-03T07:57:36.249Z,2.10
2019-05-03T07:58:59.108Z,1.70
2019-05-03T07:59:55.686Z,1.30
2019-05-03T08:01:08.853Z,1.97
2019-05-03T08:02:14.493Z,1.40
2019-05-03T08:03:21.682Z,1.53
2019-05-03T08:04:28.797Z,2.10
2019-05-03T08:05:35.634Z,0.97
2019-05-03T08:06:44.454Z,1.03
2019-05-03T08:07:50.991Z,1.40
2019-05-03T08:08:57.868Z,2.07
2019-05-03T08:10:05.578Z,2.50
2019-05-03T08:11:14.393Z,1.60
2019-05-03T08:12:21.170Z,1.80
2019-05-03T08:13:27.957Z,2.03
2019-05-03T08:14:35.659Z,1.47
2019-05-03T08:15:44.955Z,1.70
2019-05-03T08:16:51.343Z,1.60
2019-05-03T08:17:58.163Z,1.60
2019-05-03T08:19:05.482Z,1.37
2019-05-03T08:20:14.307Z,1.23
2019-05-03T08:21:21.121Z,1.53
2019-05-03T08:22:27.905Z,1.10
2019-05-03T08:23:35.363Z,1.20
2019-05-03T08:24:44.792Z,1.23
2019-05-03T08:25:51.661Z,1.33
2019-05-03T08:26:58.814Z,2.10
2019-05-03T08:28:05.694Z,2.60
2019-05-03T08:29:16.905Z,1.13
2019-05-03T08:30:26.859Z,1.40
2019-05-03T08:31:54.555Z,1.50
2019-05-03T08:33:15.285Z,1.37
2019-05-03T08:34:39.781Z,1.57
2019-05-03T08:35:47.909Z,1.60
2019-05-03T08:37:00.111Z,1.83
2019-05-03T08:38:07.268Z,1.43
2019-05-03T08:39:15.814Z,1.63
2019-05-03T08:40:24.665Z,2.60
2019-05-03T08:41:35.065Z,1.87
2019-05-03T08:42:42.007Z,1.90
2019-05-03T08:43:48.781Z,1.87
2019-05-03T08:44:55.533Z,1.40
2019-05-03T08:46:04.606Z,2.00
2019-05-03T08:47:11.530Z,1.70
2019-05-03T08:48:18.713Z,2.13
2019-05-03T08:49:25.685Z,1.80
2019-05-03T08:50:34.789Z,1.43
2019-05-03T08:51:41.524Z,1.93
2019-05-03T08:52:48.303Z,1.90
2019-05-03T08:53:56.087Z,1.70
2019-05-03T08:55:05.125Z,1.63
2019-05-03T08:56:11.865Z,1.30
2019-05-03T08:57:18.754Z,1.47
2019-05-03T08:58:25.719Z,1.53
2019-05-03T08:59:32.938Z,1.40
2019-05-03T09:00:41.483Z,1.90
2019-05-03T09:01:48.929Z,2.00
2019-05-03T09:02:55.716Z,1.67
2019-05-03T09:04:04.822Z,1.70
2019-05-03T09:05:12.528Z,1.00
2019-05-03T09:06:19.367Z,1.40
2019-05-03T09:07:26.347Z,1.00
2019-05-03T09:08:35.387Z,1.20
2019-05-03T09:09:59.941Z,1.40
2019-05-03T09:11:12.459Z,1.43
2019-05-03T09:12:19.194Z,1.20
2019-05-03T09:13:26.064Z,1.50
2019-05-03T09:14:42.645Z,1.07
2019-05-03T09:15:44.566Z,1.00
2019-05-03T09:16:51.498Z,1.90
2019-05-03T09:17:59.104Z,1.50
2019-05-03T09:19:05.938Z,1.50
2019-05-03T09:20:12.948Z,1.10
2019-05-03T09:21:19.744Z,0.90
2019-05-03T09:22:26.525Z,2.50
2019-05-03T09:23:35.565Z,1.17
2019-05-03T09:24:42.217Z,1.43
2019-05-03T09:25:49.155Z,1.20
2019-05-03T09:26:56.337Z,1.37
2019-05-03T09:28:04.711Z,1.10
2019-05-03T09:29:11.676Z,1.47
2019-05-03T09:30:19.030Z,1.60
2019-05-03T09:31:25.835Z,1.10
2019-05-03T09:32:32.625Z,1.50
2019-05-03T09:33:40.163Z,1.27
2019-05-03T09:34:47.235Z,1.47
2019-05-03T09:35:54.982Z,1.40
2019-05-03T09:37:04.587Z,1.30
2019-05-03T09:38:10.814Z,1.20
2019-05-03T09:39:18.222Z,1.03
2019-05-03T09:40:25.015Z,1.10
2019-05-03T09:41:31.813Z,1.33
2019-05-03T09:42:39.228Z,1.70
2019-05-03T09:43:45.988Z,3.03
2019-05-03T09:44:52.748Z,1.60
2019-05-03T09:45:59.789Z,1.50
2019-05-03T09:47:06.556Z,1.40
2019-05-03T09:48:14.999Z,1.10
2019-05-03T09:49:22.225Z,1.43
2019-05-03T09:50:29.305Z,1.40
2019-05-03T09:51:36.490Z,2.97
2019-05-03T09:52:46.869Z,1.00
2019-05-03T09:53:57.176Z,2.33
2019-05-03T09:55:06.098Z,1.30
2019-05-03T09:56:15.265Z,2.13
2019-05-03T09:57:21.989Z,1.60
2019-05-03T09:58:29.133Z,1.60
2019-05-03T09:59:36.042Z,1.17
2019-05-03T10:00:44.640Z,1.33
2019-05-03T10:01:51.833Z,1.80
2019-05-03T10:02:58.729Z,1.57
2019-05-03T10:04:05.579Z,1.60
2019-05-03T10:05:12.359Z,1.50
2019-05-03T10:06:19.157Z,1.50
2019-05-03T10:07:26.132Z,1.50
2019-05-03T10:08:33.011Z,2.07
2019-05-03T10:09:39.849Z,1.70
2019-05-03T10:11:05.526Z,1.63
2019-05-03T10:12:17.105Z,1.37
2019-05-03T10:13:26.977Z,2.37
2019-05-03T10:14:32.316Z,1.87
2019-05-03T10:15:41.559Z,1.83
2019-05-03T10:17:16.311Z,1.73
2019-05-03T10:18:25.260Z,1.50
2019-05-03T10:19:39.245Z,1.30
2019-05-03T10:20:40.301Z,1.60
2019-05-03T10:21:48.301Z,1.90
2019-05-03T10:22:56.815Z,1.90
2019-05-03T10:24:05.579Z,1.90
2019-05-03T10:25:12.518Z,1.20
2019-05-03T10:26:19.267Z,1.27
2019-05-03T10:27:26.017Z,2.00
2019-05-03T10:28:33.639Z,1.23
2019-05-03T10:29:40.400Z,2.10
2019-05-03T10:30:47.805Z,1.37
2019-05-03T10:32:17.091Z,1.93
2019-05-03T10:33:28.441Z,2.23
2019-05-03T10:34:35.721Z,1.90
2019-05-03T10:35:45.096Z,2.10
2019-05-03T10:36:52.011Z,1.20
2019-05-03T10:37:59.152Z,1.70
2019-05-03T10:39:07.421Z,1.30
2019-05-03T10:40:17.073Z,1.27
2019-05-03T10:41:25.089Z,1.60
2019-05-03T10:42:35.148Z,1.83
2019-05-03T10:43:41.391Z,1.17
2019-05-03T10:44:48.507Z,1.00
2019-05-03T10:45:55.779Z,1.07
2019-05-03T10:47:05.294Z,1.40
2019-05-03T10:48:11.955Z,1.30
2019-05-03T10:49:18.738Z,1.40
2019-05-03T10:50:25.488Z,1.10
2019-05-03T10:51:35.938Z,1.27
2019-05-03T10:52:48.678Z,1.20
2019-05-03T10:53:58.542Z,1.10
2019-05-03T10:55:06.132Z,1.20
2019-05-03T10:56:23.316Z,1.77
2019-05-03T10:57:29.687Z,1.83
2019-05-03T10:58:37.294Z,1.27
2019-05-03T10:59:44.792Z,2.10
2019-05-03T11:00:56.456Z,1.80
2019-05-03T11:02:25.290Z,1.47
2019-05-03T11:03:34.043Z,1.67
2019-05-03T11:04:43.679Z,1.40
2019-05-03T11:05:49.902Z,1.50
2019-05-03T11:06:56.742Z,1.77
2019-05-03T11:08:05.034Z,1.73
2019-05-03T11:09:12.321Z,2.10
2019-05-03T11:10:19.500Z,2.57
2019-05-03T11:11:26.350Z,1.80
2019-05-03T11:12:34.753Z,1.60
2019-05-03T11:13:41.979Z,1.50
2019-05-03T11:14:48.794Z,1.60
2019-05-03T11:15:56.844Z,1.40
2019-05-03T11:17:05.508Z,2.17
2019-05-03T11:18:14.589Z,1.60
2019-05-03T11:19:21.490Z,2.10
2019-05-03T11:20:36.897Z,1.40
2019-05-03T11:21:45.549Z,1.10
2019-05-03T11:22:54.711Z,1.40
2019-05-03T11:24:01.348Z,1.27
2019-05-03T11:25:10.156Z,1.20
2019-05-03T11:26:16.995Z,1.70
2019-05-03T11:27:29.409Z,1.50
2019-05-03T11:28:36.479Z,1.00
2019-05-03T11:29:44.999Z,1.40
2019-05-03T11:30:57.584Z,1.50
2019-05-03T11:32:19.338Z,1.83
2019-05-03T11:33:32.906Z,1.40
2019-05-03T11:34:59.434Z,1.50
2019-05-03T11:36:31.526Z,1.37
2019-05-03T11:37:42.840Z,1.60
2019-05-03T11:38:49.956Z,1.43
2019-05-03T11:39:57.261Z,1.43
2019-05-03T11:41:05.022Z,1.43
2019-05-03T11:42:11.849Z,1.03
2019-05-03T11:43:21.264Z,1.00
2019-05-03T11:44:40.414Z,1.20
2019-05-03T11:45:47.834Z,1.23
2019-05-03T11:46:55.143Z,1.20
2019-05-03T11:48:02.663Z,1.67
2019-05-03T11:49:09.441Z,1.17
2019-05-03T11:50:16.483Z,1.70
2019-05-03T11:51:24.877Z,1.30
2019-05-03T11:52:31.892Z,1.27
2019-05-03T11:53:38.718Z,1.40
2019-05-03T11:54:45.515Z,1.50
2019-05-03T11:55:54.958Z,1.60
2019-05-03T11:57:05.003Z,1.57
2019-05-03T11:58:27.115Z,1.93
2019-05-03T11:59:34.437Z,1.73
2019-05-03T12:00:41.470Z,1.87
2019-05-03T12:02:00.109Z,1.30
2019-05-03T12:03:16.013Z,2.10
2019-05-03T12:04:24.969Z,2.57
2019-05-03T12:05:31.507Z,1.80
2019-05-03T12:06:39.007Z,1.40
2019-05-03T12:07:46.064Z,1.30
2019-05-03T12:08:52.852Z,1.47
2019-05-03T12:10:00.534Z,1.33
2019-05-03T12:11:08.080Z,1.50
2019-05-03T12:12:29.472Z,1.37
2019-05-03T12:13:36.482Z,1.60
2019-05-03T12:15:04.283Z,1.37
2019-05-03T12:16:19.543Z,1.50
2019-05-03T12:17:26.879Z,1.53
2019-05-03T12:18:44.909Z,1.10
2019-05-03T12:19:40.632Z,1.57
2019-05-03T12:20:49.517Z,1.10
2019-05-03T12:21:57.384Z,1.43
2019-05-03T12:23:06.392Z,1.60
2019-05-03T12:24:15.936Z,1.00
2019-05-03T12:25:23.458Z,1.73
2019-05-03T12:26:41.790Z,1.60
2019-05-03T12:27:40.364Z,1.30
2019-05-03T12:28:47.764Z,1.57
2019-05-03T12:29:54.913Z,1.03
2019-05-03T12:31:02.037Z,1.87
2019-05-03T12:32:08.883Z,1.40
2019-05-03T12:33:15.759Z,1.43
2019-05-03T12:34:25.468Z,1.53
2019-05-03T12:35:31.924Z,1.60
2019-05-03T12:36:39.331Z,1.43
2019-05-03T12:37:46.269Z,1.50
2019-05-03T12:38:54.765Z,1.40
2019-05-03T12:40:01.673Z,1.50
2019-05-03T12:41:08.655Z,1.23
2019-05-03T12:42:15.401Z,1.53
2019-05-03T12:43:22.446Z,1.10
2019-05-03T12:44:29.667Z,1.10
2019-05-03T12:45:36.542Z,1.23
2019-05-03T12:46:45.014Z,1.50
2019-05-03T12:47:52.322Z,1.50
2019-05-03T12:48:59.135Z,1.43
2019-05-03T12:50:06.718Z,1.23
2019-05-03T12:51:15.325Z,1.37
2019-05-03T12:52:22.777Z,1.87
2019-05-03T12:53:30.673Z,1.30
2019-05-03T12:54:37.509Z,1.50
2019-05-03T12:55:44.644Z,1.27
2019-05-03T12:56:51.685Z,1.77
2019-05-03T12:57:58.744Z,1.60
2019-05-03T12:59:41.650Z,1.30
2019-05-03T13:01:04.557Z,1.70
2019-05-03T13:02:16.235Z,1.20
2019-05-03T13:03:28.425Z,2.20
2019-05-03T13:04:37.448Z,1.57
2019-05-03T13:05:45.081Z,1.50
2019-05-03T13:06:58.963Z,2.00
2019-05-03T13:08:51.105Z,1.70
2019-05-03T13:09:58.122Z,1.37
2019-05-03T13:11:05.493Z,1.80
2019-05-03T13:12:14.755Z,1.50
2019-05-03T13:13:21.511Z,1.40
2019-05-03T13:14:28.621Z,1.30
2019-05-03T13:15:35.395Z,1.10
2019-05-03T13:16:44.404Z,1.70
2019-05-03T13:17:50.924Z,1.20
2019-05-03T13:18:57.662Z,1.50
2019-05-03T13:20:07.121Z,1.90
2019-05-03T13:21:13.898Z,2.07
2019-05-03T13:22:20.672Z,1.47
2019-05-03T13:23:27.845Z,1.30
2019-05-03T13:24:35.023Z,1.90
2019-05-03T13:25:42.211Z,2.07
2019-05-03T13:26:49.100Z,1.50
2019-05-03T13:27:55.859Z,1.90
2019-05-03T13:29:03.039Z,2.33
2019-05-03T13:30:11.795Z,1.80
2019-05-03T13:31:18.658Z,1.97
2019-05-03T13:32:25.516Z,1.73
2019-05-03T13:33:34.559Z,1.93
2019-05-03T13:34:41.444Z,1.57
2019-05-03T13:35:48.289Z,1.53
2019-05-03T13:36:55.783Z,1.87
2019-05-03T13:38:03.030Z,1.63
2019-05-03T13:39:14.203Z,1.80
2019-05-03T13:40:18.704Z,1.77
2019-05-03T13:41:25.463Z,1.57
2019-05-03T13:42:32.303Z,1.60
2019-05-03T13:43:39.038Z,1.33
2019-05-03T13:44:45.815Z,1.73
2019-05-03T13:45:52.885Z,1.03
2019-05-03T13:47:00.072Z,1.53
2019-05-03T13:48:06.983Z,1.73
2019-05-03T13:49:15.713Z,1.80
2019-05-03T13:50:24.443Z,2.30
2019-05-03T13:51:31.413Z,1.80
2019-05-03T13:52:38.291Z,1.77
2019-05-03T13:53:45.095Z,2.00
2019-05-03T13:54:52.282Z,1.67
2019-05-03T13:55:59.679Z,1.90
2019-05-03T13:57:06.659Z,1.20
2019-05-03T13:58:14.705Z,2.00
2019-05-03T13:59:22.197Z,1.47
2019-05-03T14:00:29.047Z,1.80
2019-05-03T14:01:35.820Z,1.80
2019-05-03T14:02:44.773Z,1.43
2019-05-03T14:03:51.016Z,1.30
2019-05-03T14:04:58.105Z,1.77
2019-05-03T14:06:08.829Z,1.50
2019-05-03T14:07:15.185Z,1.50
2019-05-03T14:08:22.008Z,1.73
2019-05-03T14:09:29.108Z,1.50
2019-05-03T14:10:36.196Z,1.80
2019-05-03T14:11:44.785Z,1.87
2019-05-03T14:12:52.385Z,1.63
2019-05-03T14:13:59.183Z,1.77
2019-05-03T14:15:06.559Z,1.50
2019-05-03T14:16:14.433Z,1.70
2019-05-03T14:17:21.502Z,1.43
2019-05-03T14:18:28.604Z,1.50
2019-05-03T14:19:37.249Z,1.40
2019-05-03T14:21:05.816Z,1.33
2019-05-03T14:22:15.589Z,1.20
2019-05-03T14:23:22.355Z,1.37
2019-05-03T14:24:29.148Z,1.47
2019-05-03T14:25:36.658Z,0.97
2019-05-03T14:26:44.819Z,1.53
2019-05-03T14:27:51.814Z,1.40
2019-05-03T14:28:59.427Z,1.70
2019-05-03T14:30:07.320Z,1.83
2019-05-03T14:31:14.487Z,1.63
2019-05-03T14:32:26.783Z,1.23
2019-05-03T14:33:30.917Z,1.30
2019-05-03T14:34:37.880Z,1.57
2019-05-03T14:35:45.200Z,1.40
2019-05-03T14:36:52.976Z,1.33
2019-05-03T14:37:59.899Z,1.40
2019-05-03T14:39:10.079Z,1.10
2019-05-03T14:40:17.910Z,1.57
2019-05-03T14:41:25.462Z,1.30
2019-05-03T14:42:32.410Z,0.90
2019-05-03T14:43:39.240Z,1.40
2019-05-03T14:44:46.726Z,1.27
2019-05-03T14:45:55.067Z,1.30
2019-05-03T14:47:02.201Z,1.00
2019-05-03T14:48:08.967Z,1.50
2019-05-03T14:49:16.210Z,1.63
2019-05-03T14:50:25.372Z,1.40
2019-05-03T14:51:31.983Z,1.33
2019-05-03T14:52:38.789Z,1.30
2019-05-03T14:53:45.662Z,1.30
2019-05-03T14:54:54.377Z,1.53
2019-05-03T14:56:08.048Z,0.90
2019-05-03T14:57:40.329Z,1.87
2019-05-03T14:59:08.683Z,1.33
2019-05-03T15:00:30.727Z,1.73
2019-05-03T15:01:45.864Z,1.60
2019-05-03T15:02:58.053Z,1.43
2019-05-03T15:04:05.834Z,1.33
2019-05-03T15:05:14.931Z,1.37
2019-05-03T15:06:21.897Z,1.30
2019-05-03T15:07:28.735Z,1.40
2019-05-03T15:08:35.855Z,1.67
2019-05-03T15:09:43.029Z,1.60
2019-05-03T15:10:49.801Z,1.67
2019-05-03T15:11:56.528Z,1.40
2019-05-03T15:13:05.235Z,1.77
2019-05-03T15:14:12.088Z,1.27
2019-05-03T15:15:19.445Z,1.33
2019-05-03T15:16:26.183Z,1.50
2019-05-03T15:17:34.957Z,1.50
2019-05-03T15:18:41.752Z,1.60
2019-05-03T15:19:48.483Z,1.90
2019-05-03T15:20:55.234Z,1.70
2019-05-03T15:22:02.047Z,1.83
2019-05-03T15:23:09.187Z,1.90
2019-05-03T15:24:16.687Z,1.50
2019-05-03T15:25:25.062Z,1.87
2019-05-03T15:26:32.087Z,2.50
2019-05-03T15:27:39.295Z,1.80
2019-05-03T15:28:46.040Z,1.70